sensor_id;sensor_type;location;lat;lon;timestamp;temperature;humidity
3416;DHT22;1721;51.238;9.562;2022-07-23T00:00:32;20.00;96.70
3416;DHT22;1721;51.238;9.562;2022-07-23T00:02:58;19.90;96.80
3416;DHT22;1721;51.238;9.562;2022-07-23T00:05:23;19.90;97.00
3416;DHT22;1721;51.238;9.562;2022-07-23T00:07:49;19.90;96.80
3416;DHT22;1721;51.238;9.562;2022-07-23T00:10:14;19.80;97.00
3416;DHT22;1721;51.238;9.562;2022-07-23T00:12:40;19.80;96.90
3416;DHT22;1721;51.238;9.562;2022-07-23T00:15:07;19.90;96.80
3416;DHT22;1721;51.238;9.562;2022-07-23T00:17:33;19.90;96.80
3416;DHT22;1721;51.238;9.562;2022-07-23T00:19:59;20.00;97.00
3416;DHT22;1721;51.238;9.562;2022-07-23T00:22:25;19.90;97.00
3416;DHT22;1721;51.238;9.562;2022-07-23T00:24:50;19.80;97.20
3416;DHT22;1721;51.238;9.562;2022-07-23T00:27:16;19.70;97.50
3416;DHT22;1721;51.238;9.562;2022-07-23T00:29:41;19.80;97.30
3416;DHT22;1721;51.238;9.562;2022-07-23T00:32:07;19.70;97.50
3416;DHT22;1721;51.238;9.562;2022-07-23T00:34:32;19.40;98.20
3416;DHT22;1721;51.238;9.562;2022-07-23T00:36:58;19.30;98.40
3416;DHT22;1721;51.238;9.562;2022-07-23T00:39:23;19.50;98.40
3416;DHT22;1721;51.238;9.562;2022-07-23T00:41:50;19.50;98.40
3416;DHT22;1721;51.238;9.562;2022-07-23T00:44:24;19.70;98.00
3416;DHT22;1721;51.238;9.562;2022-07-23T00:46:52;19.50;98.00
3416;DHT22;1721;51.238;9.562;2022-07-23T00:49:24;19.60;98.40
3416;DHT22;1721;51.238;9.562;2022-07-23T00:51:50;19.70;98.20
3416;DHT22;1721;51.238;9.562;2022-07-23T00:54:17;19.70;98.10
3416;DHT22;1721;51.238;9.562;2022-07-23T00:56:44;19.70;98.10
3416;DHT22;1721;51.238;9.562;2022-07-23T00:59:10;19.70;98.30
3416;DHT22;1721;51.238;9.562;2022-07-23T01:01:36;19.80;98.20
3416;DHT22;1721;51.238;9.562;2022-07-23T01:04:01;19.60;98.10
3416;DHT22;1721;51.238;9.562;2022-07-23T01:06:27;19.60;98.40
3416;DHT22;1721;51.238;9.562;2022-07-23T01:08:54;19.50;98.50
3416;DHT22;1721;51.238;9.562;2022-07-23T01:11:20;19.70;98.40
3416;DHT22;1721;51.238;9.562;2022-07-23T01:13:46;19.70;98.20
3416;DHT22;1721;51.238;9.562;2022-07-23T01:16:12;19.50;98.80
3416;DHT22;1721;51.238;9.562;2022-07-23T01:18:38;19.40;99.00
3416;DHT22;1721;51.238;9.562;2022-07-23T01:21:04;19.40;98.90
3416;DHT22;1721;51.238;9.562;2022-07-23T01:23:29;19.30;99.30
3416;DHT22;1721;51.238;9.562;2022-07-23T01:25:55;19.40;99.10
3416;DHT22;1721;51.238;9.562;2022-07-23T01:28:21;19.40;99.00
3416;DHT22;1721;51.238;9.562;2022-07-23T01:30:48;19.50;99.20
3416;DHT22;1721;51.238;9.562;2022-07-23T01:33:14;19.60;98.80
3416;DHT22;1721;51.238;9.562;2022-07-23T01:35:39;19.70;98.60
3416;DHT22;1721;51.238;9.562;2022-07-23T01:38:05;19.80;98.50
3416;DHT22;1721;51.238;9.562;2022-07-23T01:40:31;19.70;98.30
3416;DHT22;1721;51.238;9.562;2022-07-23T01:42:56;19.70;98.10
3416;DHT22;1721;51.238;9.562;2022-07-23T01:45:22;19.70;98.00
3416;DHT22;1721;51.238;9.562;2022-07-23T01:47:48;19.50;98.20
3416;DHT22;1721;51.238;9.562;2022-07-23T01:50:14;18.90;99.20
3416;DHT22;1721;51.238;9.562;2022-07-23T01:52:39;18.70;99.90
3416;DHT22;1721;51.238;9.562;2022-07-23T01:55:06;18.60;99.90
3416;DHT22;1721;51.238;9.562;2022-07-23T01:57:32;18.60;99.90
3416;DHT22;1721;51.238;9.562;2022-07-23T01:59:58;18.70;99.90
3416;DHT22;1721;51.238;9.562;2022-07-23T02:02:23;18.70;99.90
3416;DHT22;1721;51.238;9.562;2022-07-23T02:04:49;18.90;99.90
3416;DHT22;1721;51.238;9.562;2022-07-23T02:07:14;19.00;99.90
3416;DHT22;1721;51.238;9.562;2022-07-23T02:09:40;19.10;99.60
3416;DHT22;1721;51.238;9.562;2022-07-23T02:12:06;18.90;99.70
3416;DHT22;1721;51.238;9.562;2022-07-23T02:14:31;18.90;99.80
3416;DHT22;1721;51.238;9.562;2022-07-23T02:16:57;19.00;99.80
3416;DHT22;1721;51.238;9.562;2022-07-23T02:19:23;19.00;99.90
3416;DHT22;1721;51.238;9.562;2022-07-23T02:21:48;19.00;99.70
3416;DHT22;1721;51.238;9.562;2022-07-23T02:24:14;18.80;99.90
3416;DHT22;1721;51.238;9.562;2022-07-23T02:26:40;18.90;99.60
3416;DHT22;1721;51.238;9.562;2022-07-23T02:29:06;18.80;99.50
3416;DHT22;1721;51.238;9.562;2022-07-23T02:31:32;18.80;99.60
3416;DHT22;1721;51.238;9.562;2022-07-23T02:33:58;18.60;99.90
3416;DHT22;1721;51.238;9.562;2022-07-23T02:36:23;18.70;99.90
3416;DHT22;1721;51.238;9.562;2022-07-23T02:38:49;18.80;99.90
3416;DHT22;1721;51.238;9.562;2022-07-23T02:41:15;18.80;99.70
3416;DHT22;1721;51.238;9.562;2022-07-23T02:43:41;18.80;99.60
3416;DHT22;1721;51.238;9.562;2022-07-23T02:46:06;18.70;99.40
3416;DHT22;1721;51.238;9.562;2022-07-23T02:48:32;18.60;99.70
3416;DHT22;1721;51.238;9.562;2022-07-23T02:50:58;18.60;99.80
3416;DHT22;1721;51.238;9.562;2022-07-23T02:53:24;18.50;99.90
3416;DHT22;1721;51.238;9.562;2022-07-23T02:55:49;18.40;99.70
3416;DHT22;1721;51.238;9.562;2022-07-23T02:58:15;18.40;99.90
3416;DHT22;1721;51.238;9.562;2022-07-23T03:00:41;18.50;99.90
3416;DHT22;1721;51.238;9.562;2022-07-23T03:03:07;18.50;99.50
3416;DHT22;1721;51.238;9.562;2022-07-23T03:05:34;18.60;99.60
3416;DHT22;1721;51.238;9.562;2022-07-23T03:07:59;18.50;99.50
3416;DHT22;1721;51.238;9.562;2022-07-23T03:10:25;18.40;99.60
3416;DHT22;1721;51.238;9.562;2022-07-23T03:12:50;18.40;99.90
3416;DHT22;1721;51.238;9.562;2022-07-23T03:15:16;18.40;99.90
3416;DHT22;1721;51.238;9.562;2022-07-23T03:17:41;18.50;99.50
3416;DHT22;1721;51.238;9.562;2022-07-23T03:20:08;18.30;99.80
3416;DHT22;1721;51.238;9.562;2022-07-23T03:22:33;18.40;99.80
3416;DHT22;1721;51.238;9.562;2022-07-23T03:24:59;18.40;99.80
3416;DHT22;1721;51.238;9.562;2022-07-23T03:27:28;18.30;99.90
3416;DHT22;1721;51.238;9.562;2022-07-23T03:29:55;18.40;99.90
3416;DHT22;1721;51.238;9.562;2022-07-23T03:32:21;18.50;99.80
3416;DHT22;1721;51.238;9.562;2022-07-23T03:34:47;18.60;99.30
3416;DHT22;1721;51.238;9.562;2022-07-23T03:37:13;18.50;99.40
3416;DHT22;1721;51.238;9.562;2022-07-23T03:39:40;18.40;99.40
3416;DHT22;1721;51.238;9.562;2022-07-23T03:42:06;18.40;99.60
3416;DHT22;1721;51.238;9.562;2022-07-23T03:44:32;18.30;99.90
3416;DHT22;1721;51.238;9.562;2022-07-23T03:46:57;18.40;99.90
3416;DHT22;1721;51.238;9.562;2022-07-23T03:49:23;18.60;99.70
3416;DHT22;1721;51.238;9.562;2022-07-23T03:51:49;18.60;99.60
3416;DHT22;1721;51.238;9.562;2022-07-23T03:54:14;18.50;99.80
3416;DHT22;1721;51.238;9.562;2022-07-23T03:56:40;18.50;99.90
3416;DHT22;1721;51.238;9.562;2022-07-23T03:59:05;18.50;99.90
3416;DHT22;1721;51.238;9.562;2022-07-23T04:01:31;18.60;99.90
3416;DHT22;1721;51.238;9.562;2022-07-23T04:03:57;18.60;99.70
3416;DHT22;1721;51.238;9.562;2022-07-23T04:06:22;18.50;99.90
3416;DHT22;1721;51.238;9.562;2022-07-23T04:08:48;18.60;99.90
3416;DHT22;1721;51.238;9.562;2022-07-23T04:11:13;18.50;99.90
3416;DHT22;1721;51.238;9.562;2022-07-23T04:13:39;18.40;99.90
3416;DHT22;1721;51.238;9.562;2022-07-23T04:16:05;18.40;99.90
3416;DHT22;1721;51.238;9.562;2022-07-23T04:18:31;18.50;99.90
3416;DHT22;1721;51.238;9.562;2022-07-23T04:20:57;18.70;99.90
3416;DHT22;1721;51.238;9.562;2022-07-23T04:23:22;18.70;99.90
3416;DHT22;1721;51.238;9.562;2022-07-23T04:25:48;18.80;99.70
3416;DHT22;1721;51.238;9.562;2022-07-23T04:28:13;18.90;99.70
3416;DHT22;1721;51.238;9.562;2022-07-23T04:30:39;19.00;99.60
3416;DHT22;1721;51.238;9.562;2022-07-23T04:33:04;19.20;99.40
3416;DHT22;1721;51.238;9.562;2022-07-23T04:35:32;19.10;99.10
3416;DHT22;1721;51.238;9.562;2022-07-23T04:37:58;19.10;99.40
3416;DHT22;1721;51.238;9.562;2022-07-23T04:40:25;19.10;99.20
3416;DHT22;1721;51.238;9.562;2022-07-23T04:42:50;19.30;99.10
3416;DHT22;1721;51.238;9.562;2022-07-23T04:45:16;19.30;99.00
3416;DHT22;1721;51.238;9.562;2022-07-23T04:47:41;19.40;98.90
3416;DHT22;1721;51.238;9.562;2022-07-23T04:50:07;19.30;98.90
3416;DHT22;1721;51.238;9.562;2022-07-23T04:52:32;19.40;99.00
3416;DHT22;1721;51.238;9.562;2022-07-23T04:54:58;19.50;99.30
3416;DHT22;1721;51.238;9.562;2022-07-23T04:57:24;19.40;98.90
3416;DHT22;1721;51.238;9.562;2022-07-23T04:59:49;19.40;99.20
3416;DHT22;1721;51.238;9.562;2022-07-23T05:02:15;19.50;99.30
3416;DHT22;1721;51.238;9.562;2022-07-23T05:04:40;19.50;99.10
3416;DHT22;1721;51.238;9.562;2022-07-23T05:07:06;19.60;99.20
3416;DHT22;1721;51.238;9.562;2022-07-23T05:09:31;19.80;99.20
3416;DHT22;1721;51.238;9.562;2022-07-23T05:11:57;20.00;98.80
3416;DHT22;1721;51.238;9.562;2022-07-23T05:14:23;20.20;98.60
3416;DHT22;1721;51.238;9.562;2022-07-23T05:16:48;20.50;97.50
3416;DHT22;1721;51.238;9.562;2022-07-23T05:19:14;20.60;97.40
3416;DHT22;1721;51.238;9.562;2022-07-23T05:21:39;20.60;97.10
3416;DHT22;1721;51.238;9.562;2022-07-23T05:24:05;20.80;97.40
3416;DHT22;1721;51.238;9.562;2022-07-23T05:26:31;20.90;97.60
3416;DHT22;1721;51.238;9.562;2022-07-23T05:28:57;21.40;97.10
3416;DHT22;1721;51.238;9.562;2022-07-23T05:31:22;21.60;96.50
3416;DHT22;1721;51.238;9.562;2022-07-23T05:33:48;21.80;96.20
3416;DHT22;1721;51.238;9.562;2022-07-23T05:36:14;21.90;95.20
3416;DHT22;1721;51.238;9.562;2022-07-23T05:38:40;21.90;95.10
3416;DHT22;1721;51.238;9.562;2022-07-23T05:41:05;21.70;94.80
3416;DHT22;1721;51.238;9.562;2022-07-23T05:43:31;21.70;94.90
3416;DHT22;1721;51.238;9.562;2022-07-23T05:45:56;21.60;95.20
3416;DHT22;1721;51.238;9.562;2022-07-23T05:48:22;21.50;95.50
3416;DHT22;1721;51.238;9.562;2022-07-23T05:50:48;21.40;95.50
3416;DHT22;1721;51.238;9.562;2022-07-23T05:53:13;21.80;95.50
3416;DHT22;1721;51.238;9.562;2022-07-23T05:55:39;22.20;94.80
3416;DHT22;1721;51.238;9.562;2022-07-23T05:58:05;22.30;94.40
3416;DHT22;1721;51.238;9.562;2022-07-23T06:00:30;22.30;94.30
3416;DHT22;1721;51.238;9.562;2022-07-23T06:02:56;22.50;93.50
3416;DHT22;1721;51.238;9.562;2022-07-23T06:05:22;22.50;93.80
3416;DHT22;1721;51.238;9.562;2022-07-23T06:07:48;22.10;93.70
3416;DHT22;1721;51.238;9.562;2022-07-23T06:10:14;22.00;94.30
3416;DHT22;1721;51.238;9.562;2022-07-23T06:12:39;21.90;94.50
3416;DHT22;1721;51.238;9.562;2022-07-23T06:15:05;21.80;94.60
3416;DHT22;1721;51.238;9.562;2022-07-23T06:17:31;22.00;94.60
3416;DHT22;1721;51.238;9.562;2022-07-23T06:19:57;22.00;94.70
3416;DHT22;1721;51.238;9.562;2022-07-23T06:22:22;21.90;95.10
3416;DHT22;1721;51.238;9.562;2022-07-23T06:24:50;22.10;95.00
3416;DHT22;1721;51.238;9.562;2022-07-23T06:27:17;22.20;94.80
3416;DHT22;1721;51.238;9.562;2022-07-23T06:29:43;22.40;94.30
3416;DHT22;1721;51.238;9.562;2022-07-23T06:32:08;22.60;93.70
3416;DHT22;1721;51.238;9.562;2022-07-23T06:34:34;22.80;93.50
3416;DHT22;1721;51.238;9.562;2022-07-23T06:37:00;22.90;93.60
3416;DHT22;1721;51.238;9.562;2022-07-23T06:39:25;22.90;93.10
3416;DHT22;1721;51.238;9.562;2022-07-23T06:41:51;22.90;92.20
3416;DHT22;1721;51.238;9.562;2022-07-23T06:44:17;22.60;92.50
3416;DHT22;1721;51.238;9.562;2022-07-23T06:46:43;22.80;92.80
3416;DHT22;1721;51.238;9.562;2022-07-23T06:49:08;22.90;93.40
3416;DHT22;1721;51.238;9.562;2022-07-23T06:51:34;23.10;93.00
3416;DHT22;1721;51.238;9.562;2022-07-23T06:54:00;23.20;91.90
3416;DHT22;1721;51.238;9.562;2022-07-23T06:56:26;23.10;91.80
3416;DHT22;1721;51.238;9.562;2022-07-23T06:58:51;23.20;92.20
3416;DHT22;1721;51.238;9.562;2022-07-23T07:01:17;23.40;92.70
3416;DHT22;1721;51.238;9.562;2022-07-23T07:03:42;23.60;92.60
3416;DHT22;1721;51.238;9.562;2022-07-23T07:06:08;23.70;92.20
3416;DHT22;1721;51.238;9.562;2022-07-23T07:08:34;23.50;91.30
3416;DHT22;1721;51.238;9.562;2022-07-23T07:10:59;23.60;91.20
3416;DHT22;1721;51.238;9.562;2022-07-23T07:13:25;23.90;90.50
3416;DHT22;1721;51.238;9.562;2022-07-23T07:15:50;24.20;90.10
3416;DHT22;1721;51.238;9.562;2022-07-23T07:18:16;24.30;91.10
3416;DHT22;1721;51.238;9.562;2022-07-23T07:20:42;24.30;90.80
3416;DHT22;1721;51.238;9.562;2022-07-23T07:23:07;24.30;89.60
3416;DHT22;1721;51.238;9.562;2022-07-23T07:25:33;24.00;89.70
3416;DHT22;1721;51.238;9.562;2022-07-23T07:27:59;23.80;90.30
3416;DHT22;1721;51.238;9.562;2022-07-23T07:30:24;23.90;90.00
3416;DHT22;1721;51.238;9.562;2022-07-23T07:32:50;24.00;90.20
3416;DHT22;1721;51.238;9.562;2022-07-23T07:35:16;24.10;90.00
3416;DHT22;1721;51.238;9.562;2022-07-23T07:37:41;24.20;89.50
3416;DHT22;1721;51.238;9.562;2022-07-23T07:40:07;23.70;90.30
3416;DHT22;1721;51.238;9.562;2022-07-23T07:42:33;23.70;91.00
3416;DHT22;1721;51.238;9.562;2022-07-23T07:44:59;24.10;91.50
3416;DHT22;1721;51.238;9.562;2022-07-23T07:47:25;24.30;90.90
3416;DHT22;1721;51.238;9.562;2022-07-23T07:49:50;24.60;90.00
3416;DHT22;1721;51.238;9.562;2022-07-23T07:52:16;24.60;87.70
3416;DHT22;1721;51.238;9.562;2022-07-23T07:54:41;24.50;87.80
3416;DHT22;1721;51.238;9.562;2022-07-23T07:57:08;24.40;87.70
3416;DHT22;1721;51.238;9.562;2022-07-23T07:59:33;24.10;87.80
3416;DHT22;1721;51.238;9.562;2022-07-23T08:01:59;23.80;88.40
3416;DHT22;1721;51.238;9.562;2022-07-23T08:04:24;23.70;88.60
3416;DHT22;1721;51.238;9.562;2022-07-23T08:06:50;23.10;88.80
3416;DHT22;1721;51.238;9.562;2022-07-23T08:09:16;23.00;88.70
3416;DHT22;1721;51.238;9.562;2022-07-23T08:11:41;23.10;90.10
3416;DHT22;1721;51.238;9.562;2022-07-23T08:14:07;22.90;89.70
3416;DHT22;1721;51.238;9.562;2022-07-23T08:16:33;23.00;90.60
3416;DHT22;1721;51.238;9.562;2022-07-23T08:18:58;23.30;90.10
3416;DHT22;1721;51.238;9.562;2022-07-23T08:21:24;23.30;88.60
3416;DHT22;1721;51.238;9.562;2022-07-23T08:23:49;23.30;88.30
3416;DHT22;1721;51.238;9.562;2022-07-23T08:26:15;23.10;86.60
3416;DHT22;1721;51.238;9.562;2022-07-23T08:28:40;22.70;87.80
3416;DHT22;1721;51.238;9.562;2022-07-23T08:31:06;22.60;88.90
3416;DHT22;1721;51.238;9.562;2022-07-23T08:33:32;22.50;89.30
3416;DHT22;1721;51.238;9.562;2022-07-23T08:35:58;22.20;90.00
3416;DHT22;1721;51.238;9.562;2022-07-23T08:38:24;22.40;89.20
3416;DHT22;1721;51.238;9.562;2022-07-23T08:40:54;22.50;88.10
3416;DHT22;1721;51.238;9.562;2022-07-23T08:43:23;22.50;85.90
3416;DHT22;1721;51.238;9.562;2022-07-23T08:45:51;22.50;85.90
3416;DHT22;1721;51.238;9.562;2022-07-23T08:48:20;22.50;88.90
3416;DHT22;1721;51.238;9.562;2022-07-23T08:50:51;22.40;86.20
3416;DHT22;1721;51.238;9.562;2022-07-23T08:53:18;22.50;87.10
3416;DHT22;1721;51.238;9.562;2022-07-23T08:55:45;22.60;87.90
3416;DHT22;1721;51.238;9.562;2022-07-23T08:58:11;22.80;86.30
3416;DHT22;1721;51.238;9.562;2022-07-23T09:00:37;22.80;87.50
3416;DHT22;1721;51.238;9.562;2022-07-23T09:03:03;22.70;87.00
3416;DHT22;1721;51.238;9.562;2022-07-23T09:05:29;22.80;89.50
3416;DHT22;1721;51.238;9.562;2022-07-23T09:11:02;22.50;88.00
3416;DHT22;1721;51.238;9.562;2022-07-23T09:16:01;22.40;90.50
3416;DHT22;1721;51.238;9.562;2022-07-23T09:18:32;22.40;91.40
3416;DHT22;1721;51.238;9.562;2022-07-23T09:21:14;22.60;86.70
3416;DHT22;1721;51.238;9.562;2022-07-23T09:23:41;22.40;85.50
3416;DHT22;1721;51.238;9.562;2022-07-23T09:26:18;22.40;88.70
3416;DHT22;1721;51.238;9.562;2022-07-23T09:28:56;22.40;86.60
3416;DHT22;1721;51.238;9.562;2022-07-23T09:31:23;22.70;88.30
3416;DHT22;1721;51.238;9.562;2022-07-23T09:33:49;22.60;85.60
3416;DHT22;1721;51.238;9.562;2022-07-23T09:36:27;22.50;88.70
3416;DHT22;1721;51.238;9.562;2022-07-23T09:38:53;22.60;86.40
3416;DHT22;1721;51.238;9.562;2022-07-23T09:41:18;22.90;86.90
3416;DHT22;1721;51.238;9.562;2022-07-23T09:43:44;23.10;86.90
3416;DHT22;1721;51.238;9.562;2022-07-23T09:48:45;23.60;85.80
3416;DHT22;1721;51.238;9.562;2022-07-23T09:51:11;23.90;84.40
3416;DHT22;1721;51.238;9.562;2022-07-23T09:53:37;24.20;82.50
3416;DHT22;1721;51.238;9.562;2022-07-23T09:56:03;24.20;81.70
3416;DHT22;1721;51.238;9.562;2022-07-23T09:58:30;24.00;82.00
3416;DHT22;1721;51.238;9.562;2022-07-23T10:00:57;23.80;83.70
3416;DHT22;1721;51.238;9.562;2022-07-23T10:03:23;23.70;86.30
3416;DHT22;1721;51.238;9.562;2022-07-23T10:05:50;23.60;81.90
3416;DHT22;1721;51.238;9.562;2022-07-23T10:08:18;23.50;84.50
3416;DHT22;1721;51.238;9.562;2022-07-23T10:10:45;23.70;84.10
3416;DHT22;1721;51.238;9.562;2022-07-23T10:13:11;23.90;83.30
3416;DHT22;1721;51.238;9.562;2022-07-23T10:15:56;23.90;83.00
3416;DHT22;1721;51.238;9.562;2022-07-23T10:18:22;24.30;79.60
3416;DHT22;1721;51.238;9.562;2022-07-23T10:20:48;24.10;80.10
3416;DHT22;1721;51.238;9.562;2022-07-23T10:23:39;24.30;80.10
3416;DHT22;1721;51.238;9.562;2022-07-23T10:29:47;23.90;79.60
3416;DHT22;1721;51.238;9.562;2022-07-23T10:38:10;23.50;82.70
3416;DHT22;1721;51.238;9.562;2022-07-23T10:40:37;23.60;81.50
3416;DHT22;1721;51.238;9.562;2022-07-23T10:43:13;23.80;80.10
3416;DHT22;1721;51.238;9.562;2022-07-23T10:45:40;23.80;81.40
3416;DHT22;1721;51.238;9.562;2022-07-23T10:48:23;23.80;80.10
3416;DHT22;1721;51.238;9.562;2022-07-23T10:59:16;23.40;81.80
3416;DHT22;1721;51.238;9.562;2022-07-23T11:01:42;23.40;82.00
3416;DHT22;1721;51.238;9.562;2022-07-23T11:04:07;23.60;80.50
3416;DHT22;1721;51.238;9.562;2022-07-23T11:09:30;23.60;81.40
3416;DHT22;1721;51.238;9.562;2022-07-23T11:15:00;24.10;79.00
3416;DHT22;1721;51.238;9.562;2022-07-23T11:17:26;24.10;78.80
3416;DHT22;1721;51.238;9.562;2022-07-23T11:22:57;24.40;77.20
3416;DHT22;1721;51.238;9.562;2022-07-23T11:27:50;24.10;78.30
3416;DHT22;1721;51.238;9.562;2022-07-23T11:33:16;24.00;78.60
3416;DHT22;1721;51.238;9.562;2022-07-23T11:35:48;24.10;76.40
3416;DHT22;1721;51.238;9.562;2022-07-23T11:38:22;24.00;76.30
3416;DHT22;1721;51.238;9.562;2022-07-23T11:40:53;23.80;76.70
3416;DHT22;1721;51.238;9.562;2022-07-23T11:43:20;23.70;78.90
3416;DHT22;1721;51.238;9.562;2022-07-23T11:45:52;23.30;80.00
3416;DHT22;1721;51.238;9.562;2022-07-23T11:48:21;23.70;79.10
3416;DHT22;1721;51.238;9.562;2022-07-23T11:50:48;24.10;78.10
3416;DHT22;1721;51.238;9.562;2022-07-23T11:53:20;24.40;77.00
3416;DHT22;1721;51.238;9.562;2022-07-23T11:55:46;24.60;77.10
3416;DHT22;1721;51.238;9.562;2022-07-23T11:58:12;24.70;77.50
3416;DHT22;1721;51.238;9.562;2022-07-23T12:00:40;24.50;77.70
3416;DHT22;1721;51.238;9.562;2022-07-23T12:03:06;24.70;74.70
3416;DHT22;1721;51.238;9.562;2022-07-23T12:05:35;25.10;73.40
3416;DHT22;1721;51.238;9.562;2022-07-23T12:08:05;25.00;72.50
3416;DHT22;1721;51.238;9.562;2022-07-23T12:10:44;24.30;74.90
3416;DHT22;1721;51.238;9.562;2022-07-23T12:13:18;24.40;73.90
3416;DHT22;1721;51.238;9.562;2022-07-23T12:15:50;24.10;74.70
3416;DHT22;1721;51.238;9.562;2022-07-23T12:18:21;24.10;77.40
3416;DHT22;1721;51.238;9.562;2022-07-23T12:20:54;24.30;77.10
3416;DHT22;1721;51.238;9.562;2022-07-23T12:23:23;24.20;75.10
3416;DHT22;1721;51.238;9.562;2022-07-23T12:25:50;24.50;74.10
3416;DHT22;1721;51.238;9.562;2022-07-23T12:28:20;24.60;75.30
3416;DHT22;1721;51.238;9.562;2022-07-23T12:30:51;24.80;75.60
3416;DHT22;1721;51.238;9.562;2022-07-23T12:33:28;24.50;75.30
3416;DHT22;1721;51.238;9.562;2022-07-23T12:35:59;24.20;76.60
3416;DHT22;1721;51.238;9.562;2022-07-23T12:38:27;24.10;76.70
3416;DHT22;1721;51.238;9.562;2022-07-23T12:40:58;24.10;74.50
3416;DHT22;1721;51.238;9.562;2022-07-23T12:45:53;24.60;72.80
3416;DHT22;1721;51.238;9.562;2022-07-23T12:48:31;24.80;72.90
3416;DHT22;1721;51.238;9.562;2022-07-23T12:53:41;24.30;75.60
3416;DHT22;1721;51.238;9.562;2022-07-23T12:56:13;24.30;74.40
3416;DHT22;1721;51.238;9.562;2022-07-23T12:58:48;24.50;75.60
3416;DHT22;1721;51.238;9.562;2022-07-23T13:06:20;24.80;72.20
3416;DHT22;1721;51.238;9.562;2022-07-23T13:08:46;25.00;72.80
3416;DHT22;1721;51.238;9.562;2022-07-23T13:11:11;24.80;73.60
3416;DHT22;1721;51.238;9.562;2022-07-23T13:13:37;24.90;73.20
3416;DHT22;1721;51.238;9.562;2022-07-23T13:16:03;24.80;72.60
3416;DHT22;1721;51.238;9.562;2022-07-23T13:18:29;24.80;71.80
3416;DHT22;1721;51.238;9.562;2022-07-23T13:20:56;24.50;72.80
3416;DHT22;1721;51.238;9.562;2022-07-23T13:23:22;24.50;74.90
3416;DHT22;1721;51.238;9.562;2022-07-23T13:25:48;24.50;74.50
3416;DHT22;1721;51.238;9.562;2022-07-23T13:28:14;24.90;73.10
3416;DHT22;1721;51.238;9.562;2022-07-23T13:30:41;24.90;71.90
3416;DHT22;1721;51.238;9.562;2022-07-23T13:33:06;25.20;71.00
3416;DHT22;1721;51.238;9.562;2022-07-23T13:35:34;25.00;71.40
3416;DHT22;1721;51.238;9.562;2022-07-23T13:38:00;25.00;72.20
3416;DHT22;1721;51.238;9.562;2022-07-23T13:40:26;25.10;73.90
3416;DHT22;1721;51.238;9.562;2022-07-23T13:42:52;25.10;70.80
3416;DHT22;1721;51.238;9.562;2022-07-23T13:45:18;25.10;74.30
3416;DHT22;1721;51.238;9.562;2022-07-23T13:47:43;25.10;71.80
3416;DHT22;1721;51.238;9.562;2022-07-23T13:50:09;25.20;70.40
3416;DHT22;1721;51.238;9.562;2022-07-23T13:52:35;25.40;71.80
3416;DHT22;1721;51.238;9.562;2022-07-23T13:55:02;25.80;70.50
3416;DHT22;1721;51.238;9.562;2022-07-23T13:57:29;25.60;70.70
3416;DHT22;1721;51.238;9.562;2022-07-23T13:59:55;25.80;68.40
3416;DHT22;1721;51.238;9.562;2022-07-23T14:02:20;25.80;67.50
3416;DHT22;1721;51.238;9.562;2022-07-23T14:04:46;26.00;68.00
3416;DHT22;1721;51.238;9.562;2022-07-23T14:07:12;25.90;72.70
3416;DHT22;1721;51.238;9.562;2022-07-23T14:09:37;25.80;68.30
3416;DHT22;1721;51.238;9.562;2022-07-23T14:12:04;25.80;69.30
3416;DHT22;1721;51.238;9.562;2022-07-23T14:14:30;25.80;69.70
3416;DHT22;1721;51.238;9.562;2022-07-23T14:16:55;25.60;68.50
3416;DHT22;1721;51.238;9.562;2022-07-23T14:19:21;25.70;68.00
3416;DHT22;1721;51.238;9.562;2022-07-23T14:21:47;25.40;70.00
3416;DHT22;1721;51.238;9.562;2022-07-23T14:24:14;25.40;69.10
3416;DHT22;1721;51.238;9.562;2022-07-23T14:26:40;25.20;71.40
3416;DHT22;1721;51.238;9.562;2022-07-23T14:29:06;25.40;69.90
3416;DHT22;1721;51.238;9.562;2022-07-23T14:31:32;25.20;69.30
3416;DHT22;1721;51.238;9.562;2022-07-23T14:33:58;24.80;72.40
3416;DHT22;1721;51.238;9.562;2022-07-23T14:36:24;25.00;70.80
3416;DHT22;1721;51.238;9.562;2022-07-23T14:38:51;24.80;71.60
3416;DHT22;1721;51.238;9.562;2022-07-23T14:41:16;25.10;70.60
3416;DHT22;1721;51.238;9.562;2022-07-23T14:43:43;25.00;70.60
3416;DHT22;1721;51.238;9.562;2022-07-23T14:46:09;24.90;70.70
3416;DHT22;1721;51.238;9.562;2022-07-23T14:48:37;25.10;71.00
3416;DHT22;1721;51.238;9.562;2022-07-23T14:51:03;24.80;71.60
3416;DHT22;1721;51.238;9.562;2022-07-23T14:53:29;24.50;72.80
3416;DHT22;1721;51.238;9.562;2022-07-23T14:55:54;24.70;71.10
3416;DHT22;1721;51.238;9.562;2022-07-23T14:58:22;24.80;70.40
3416;DHT22;1721;51.238;9.562;2022-07-23T15:00:48;25.10;70.30
3416;DHT22;1721;51.238;9.562;2022-07-23T15:03:14;25.50;69.00
3416;DHT22;1721;51.238;9.562;2022-07-23T15:05:40;25.70;67.80
3416;DHT22;1721;51.238;9.562;2022-07-23T15:08:05;25.50;70.50
3416;DHT22;1721;51.238;9.562;2022-07-23T15:10:31;25.30;68.20
3416;DHT22;1721;51.238;9.562;2022-07-23T15:12:56;25.40;67.10
3416;DHT22;1721;51.238;9.562;2022-07-23T15:15:22;25.40;66.40
3416;DHT22;1721;51.238;9.562;2022-07-23T15:17:48;25.50;66.60
3416;DHT22;1721;51.238;9.562;2022-07-23T15:20:13;24.90;70.50
3416;DHT22;1721;51.238;9.562;2022-07-23T15:22:39;24.80;68.90
3416;DHT22;1721;51.238;9.562;2022-07-23T15:25:05;24.80;66.90
3416;DHT22;1721;51.238;9.562;2022-07-23T15:27:31;24.90;68.70
3416;DHT22;1721;51.238;9.562;2022-07-23T15:29:57;24.70;69.00
3416;DHT22;1721;51.238;9.562;2022-07-23T15:32:22;24.70;68.70
3416;DHT22;1721;51.238;9.562;2022-07-23T15:34:52;24.70;68.60
3416;DHT22;1721;51.238;9.562;2022-07-23T15:37:17;24.40;69.80
3416;DHT22;1721;51.238;9.562;2022-07-23T15:39:46;24.50;70.00
3416;DHT22;1721;51.238;9.562;2022-07-23T15:42:11;24.60;71.30
3416;DHT22;1721;51.238;9.562;2022-07-23T15:44:37;24.40;69.80
3416;DHT22;1721;51.238;9.562;2022-07-23T15:47:03;24.70;68.70
3416;DHT22;1721;51.238;9.562;2022-07-23T15:49:31;24.90;68.30
3416;DHT22;1721;51.238;9.562;2022-07-23T15:51:56;25.10;66.20
3416;DHT22;1721;51.238;9.562;2022-07-23T15:54:25;25.00;66.90
3416;DHT22;1721;51.238;9.562;2022-07-23T15:56:50;25.00;68.30
3416;DHT22;1721;51.238;9.562;2022-07-23T15:59:16;25.00;68.20
3416;DHT22;1721;51.238;9.562;2022-07-23T16:01:42;25.00;65.80
3416;DHT22;1721;51.238;9.562;2022-07-23T16:04:07;25.10;66.80
3416;DHT22;1721;51.238;9.562;2022-07-23T16:06:35;25.30;66.80
3416;DHT22;1721;51.238;9.562;2022-07-23T16:09:00;25.20;66.30
3416;DHT22;1721;51.238;9.562;2022-07-23T16:11:27;25.00;67.80
3416;DHT22;1721;51.238;9.562;2022-07-23T16:13:53;24.90;67.90
3416;DHT22;1721;51.238;9.562;2022-07-23T16:16:18;25.10;66.80
3416;DHT22;1721;51.238;9.562;2022-07-23T16:18:45;25.10;68.60
3416;DHT22;1721;51.238;9.562;2022-07-23T16:21:13;25.00;68.20
3416;DHT22;1721;51.238;9.562;2022-07-23T16:23:38;24.80;67.40
3416;DHT22;1721;51.238;9.562;2022-07-23T16:26:04;24.90;67.00
3416;DHT22;1721;51.238;9.562;2022-07-23T16:28:30;24.90;67.40
3416;DHT22;1721;51.238;9.562;2022-07-23T16:30:55;25.00;65.40
3416;DHT22;1721;51.238;9.562;2022-07-23T16:33:21;25.00;65.40
3416;DHT22;1721;51.238;9.562;2022-07-23T16:35:46;25.10;66.60
3416;DHT22;1721;51.238;9.562;2022-07-23T16:38:12;24.90;65.90
3416;DHT22;1721;51.238;9.562;2022-07-23T16:40:37;24.90;67.00
3416;DHT22;1721;51.238;9.562;2022-07-23T16:43:03;25.00;65.70
3416;DHT22;1721;51.238;9.562;2022-07-23T16:45:29;25.00;66.30
3416;DHT22;1721;51.238;9.562;2022-07-23T16:47:56;25.10;64.80